sensor_id;sensor_type;location;lat;lon;timestamp;temperature;humidity
64034;SHT31;50280;49.864;8.638;2022-07-04T00:01:32;21.88;51.74
64034;SHT31;50280;49.864;8.638;2022-07-04T00:04:05;21.85;51.79
64034;SHT31;50280;49.864;8.638;2022-07-04T00:06:37;21.85;51.69
64034;SHT31;50280;49.864;8.638;2022-07-04T00:09:09;21.81;51.47
64034;SHT31;50280;49.864;8.638;2022-07-04T00:11:42;21.82;51.55
64034;SHT31;50280;49.864;8.638;2022-07-04T00:14:14;21.78;51.69
64034;SHT31;50280;49.864;8.638;2022-07-04T00:16:48;21.81;51.72
64034;SHT31;50280;49.864;8.638;2022-07-04T00:19:21;21.78;51.43
64034;SHT31;50280;49.864;8.638;2022-07-04T00:21:53;21.74;51.53
64034;SHT31;50280;49.864;8.638;2022-07-04T00:24:26;21.72;51.90
64034;SHT31;50280;49.864;8.638;2022-07-04T00:26:58;21.68;52.16
64034;SHT31;50280;49.864;8.638;2022-07-04T00:29:30;21.65;51.81
64034;SHT31;50280;49.864;8.638;2022-07-04T00:32:05;21.62;51.65
64034;SHT31;50280;49.864;8.638;2022-07-04T00:34:38;21.62;51.53
64034;SHT31;50280;49.864;8.638;2022-07-04T00:37:13;21.59;51.56
64034;SHT31;50280;49.864;8.638;2022-07-04T00:39:46;21.55;51.66
64034;SHT31;50280;49.864;8.638;2022-07-04T00:42:18;21.50;51.75
64034;SHT31;50280;49.864;8.638;2022-07-04T00:44:51;21.47;51.90
64034;SHT31;50280;49.864;8.638;2022-07-04T00:47:24;21.45;51.77
64034;SHT31;50280;49.864;8.638;2022-07-04T00:49:57;21.41;51.81
64034;SHT31;50280;49.864;8.638;2022-07-04T00:52:29;21.38;52.00
64034;SHT31;50280;49.864;8.638;2022-07-04T00:55:03;21.37;51.98
64034;SHT31;50280;49.864;8.638;2022-07-04T00:57:37;21.34;52.16
64034;SHT31;50280;49.864;8.638;2022-07-04T01:00:10;21.30;52.20
64034;SHT31;50280;49.864;8.638;2022-07-04T01:02:45;21.24;52.49
64034;SHT31;50280;49.864;8.638;2022-07-04T01:05:18;21.20;52.49
64034;SHT31;50280;49.864;8.638;2022-07-04T01:07:50;21.11;53.04
64034;SHT31;50280;49.864;8.638;2022-07-04T01:10:23;21.07;53.06
64034;SHT31;50280;49.864;8.638;2022-07-04T01:12:56;21.03;53.08
64034;SHT31;50280;49.864;8.638;2022-07-04T01:15:28;20.96;53.32
64034;SHT31;50280;49.864;8.638;2022-07-04T01:18:02;20.89;53.30
64034;SHT31;50280;49.864;8.638;2022-07-04T01:20:36;20.83;53.29
64034;SHT31;50280;49.864;8.638;2022-07-04T01:23:09;20.81;53.64
64034;SHT31;50280;49.864;8.638;2022-07-04T01:25:42;20.75;53.88
64034;SHT31;50280;49.864;8.638;2022-07-04T01:28:15;20.71;53.84
64034;SHT31;50280;49.864;8.638;2022-07-04T01:30:50;20.65;54.18
64034;SHT31;50280;49.864;8.638;2022-07-04T01:33:23;20.59;54.38
64034;SHT31;50280;49.864;8.638;2022-07-04T01:35:57;20.54;54.64
64034;SHT31;50280;49.864;8.638;2022-07-04T01:38:31;20.47;54.98
64034;SHT31;50280;49.864;8.638;2022-07-04T01:41:04;20.37;54.91
64034;SHT31;50280;49.864;8.638;2022-07-04T01:43:36;20.30;55.21
64034;SHT31;50280;49.864;8.638;2022-07-04T01:46:09;20.24;55.38
64034;SHT31;50280;49.864;8.638;2022-07-04T01:48:41;20.20;55.62
64034;SHT31;50280;49.864;8.638;2022-07-04T01:51:15;20.13;55.71
64034;SHT31;50280;49.864;8.638;2022-07-04T01:53:47;20.08;55.94
64034;SHT31;50280;49.864;8.638;2022-07-04T01:56:20;19.96;56.22
64034;SHT31;50280;49.864;8.638;2022-07-04T01:58:52;19.89;56.53
64034;SHT31;50280;49.864;8.638;2022-07-04T02:01:24;19.81;56.72
64034;SHT31;50280;49.864;8.638;2022-07-04T02:03:57;19.72;56.93
64034;SHT31;50280;49.864;8.638;2022-07-04T02:06:32;19.64;57.35
64034;SHT31;50280;49.864;8.638;2022-07-04T02:09:06;19.54;57.58
64034;SHT31;50280;49.864;8.638;2022-07-04T02:11:38;19.47;57.90
64034;SHT31;50280;49.864;8.638;2022-07-04T02:14:12;19.40;57.98
64034;SHT31;50280;49.864;8.638;2022-07-04T02:16:44;19.35;58.57
64034;SHT31;50280;49.864;8.638;2022-07-04T02:19:17;19.32;58.61
64034;SHT31;50280;49.864;8.638;2022-07-04T02:21:51;19.27;58.75
64034;SHT31;50280;49.864;8.638;2022-07-04T02:24:23;19.24;58.85
64034;SHT31;50280;49.864;8.638;2022-07-04T02:26:56;19.21;59.03
64034;SHT31;50280;49.864;8.638;2022-07-04T02:29:28;19.19;59.21
64034;SHT31;50280;49.864;8.638;2022-07-04T02:32:01;19.19;59.42
64034;SHT31;50280;49.864;8.638;2022-07-04T02:34:34;19.10;59.25
64034;SHT31;50280;49.864;8.638;2022-07-04T02:37:08;19.07;59.49
64034;SHT31;50280;49.864;8.638;2022-07-04T02:39:43;19.06;59.47
64034;SHT31;50280;49.864;8.638;2022-07-04T02:42:16;19.02;59.59
64034;SHT31;50280;49.864;8.638;2022-07-04T02:44:48;18.99;59.76
64034;SHT31;50280;49.864;8.638;2022-07-04T02:47:21;18.95;59.78
64034;SHT31;50280;49.864;8.638;2022-07-04T02:49:54;18.88;60.02
64034;SHT31;50280;49.864;8.638;2022-07-04T02:52:29;18.86;60.40
64034;SHT31;50280;49.864;8.638;2022-07-04T02:55:01;18.86;60.38
64034;SHT31;50280;49.864;8.638;2022-07-04T02:57:34;18.81;60.43
64034;SHT31;50280;49.864;8.638;2022-07-04T03:00:08;18.79;60.42
64034;SHT31;50280;49.864;8.638;2022-07-04T03:02:42;18.77;60.68
64034;SHT31;50280;49.864;8.638;2022-07-04T03:05:14;18.75;60.49
64034;SHT31;50280;49.864;8.638;2022-07-04T03:07:48;18.71;60.51
64034;SHT31;50280;49.864;8.638;2022-07-04T03:10:20;18.66;60.79
64034;SHT31;50280;49.864;8.638;2022-07-04T03:12:53;18.66;60.93
64034;SHT31;50280;49.864;8.638;2022-07-04T03:15:25;18.65;60.95
64034;SHT31;50280;49.864;8.638;2022-07-04T03:17:57;18.64;61.04
64034;SHT31;50280;49.864;8.638;2022-07-04T03:20:30;18.57;60.98
64034;SHT31;50280;49.864;8.638;2022-07-04T03:23:04;18.57;61.19
64034;SHT31;50280;49.864;8.638;2022-07-04T03:25:36;18.51;61.54
64034;SHT31;50280;49.864;8.638;2022-07-04T03:28:09;18.43;61.74
64034;SHT31;50280;49.864;8.638;2022-07-04T03:30:41;18.41;61.91
64034;SHT31;50280;49.864;8.638;2022-07-04T03:33:13;18.36;62.20
64034;SHT31;50280;49.864;8.638;2022-07-04T03:35:46;18.31;62.25
64034;SHT31;50280;49.864;8.638;2022-07-04T03:38:20;18.26;62.47
64034;SHT31;50280;49.864;8.638;2022-07-04T03:40:52;18.23;62.71
64034;SHT31;50280;49.864;8.638;2022-07-04T03:43:24;18.21;63.05
64034;SHT31;50280;49.864;8.638;2022-07-04T03:45:57;18.16;62.59
64034;SHT31;50280;49.864;8.638;2022-07-04T03:48:30;18.10;62.95
64034;SHT31;50280;49.864;8.638;2022-07-04T03:51:02;18.02;63.16
64034;SHT31;50280;49.864;8.638;2022-07-04T03:53:36;17.93;63.57
64034;SHT31;50280;49.864;8.638;2022-07-04T03:56:09;17.89;63.95
64034;SHT31;50280;49.864;8.638;2022-07-04T03:58:42;17.81;64.14
64034;SHT31;50280;49.864;8.638;2022-07-04T04:01:15;17.79;64.30
64034;SHT31;50280;49.864;8.638;2022-07-04T04:03:48;17.78;65.51
64034;SHT31;50280;49.864;8.638;2022-07-04T04:06:21;17.83;65.22
64034;SHT31;50280;49.864;8.638;2022-07-04T04:08:55;17.95;65.60
64034;SHT31;50280;49.864;8.638;2022-07-04T04:11:27;18.06;65.10
64034;SHT31;50280;49.864;8.638;2022-07-04T04:14:00;18.14;63.83
64034;SHT31;50280;49.864;8.638;2022-07-04T04:16:32;18.27;63.76
64034;SHT31;50280;49.864;8.638;2022-07-04T04:19:05;18.31;63.14
64034;SHT31;50280;49.864;8.638;2022-07-04T04:21:38;18.33;63.31
64034;SHT31;50280;49.864;8.638;2022-07-04T04:24:15;18.31;63.34
64034;SHT31;50280;49.864;8.638;2022-07-04T04:26:47;18.30;63.43
64034;SHT31;50280;49.864;8.638;2022-07-04T04:29:20;18.33;63.71
64034;SHT31;50280;49.864;8.638;2022-07-04T04:31:52;18.37;63.38
64034;SHT31;50280;49.864;8.638;2022-07-04T04:34:24;18.43;63.07
64034;SHT31;50280;49.864;8.638;2022-07-04T04:36:57;18.49;62.94
64034;SHT31;50280;49.864;8.638;2022-07-04T04:39:30;18.52;62.45
64034;SHT31;50280;49.864;8.638;2022-07-04T04:42:03;18.52;62.81
64034;SHT31;50280;49.864;8.638;2022-07-04T04:44:36;18.59;62.80
64034;SHT31;50280;49.864;8.638;2022-07-04T04:47:08;18.65;62.50
64034;SHT31;50280;49.864;8.638;2022-07-04T04:49:41;18.71;62.42
64034;SHT31;50280;49.864;8.638;2022-07-04T04:52:13;18.77;62.50
64034;SHT31;50280;49.864;8.638;2022-07-04T04:54:47;18.86;62.03
64034;SHT31;50280;49.864;8.638;2022-07-04T04:57:20;18.92;61.78
64034;SHT31;50280;49.864;8.638;2022-07-04T04:59:52;19.00;61.48
64034;SHT31;50280;49.864;8.638;2022-07-04T05:02:25;19.02;61.40
64034;SHT31;50280;49.864;8.638;2022-07-04T05:04:58;19.02;61.94
64034;SHT31;50280;49.864;8.638;2022-07-04T05:07:30;19.04;61.75
64034;SHT31;50280;49.864;8.638;2022-07-04T05:10:05;19.09;61.51
64034;SHT31;50280;49.864;8.638;2022-07-04T05:12:39;19.11;61.46
64034;SHT31;50280;49.864;8.638;2022-07-04T05:15:12;19.14;61.21
64034;SHT31;50280;49.864;8.638;2022-07-04T05:17:45;19.17;61.22
64034;SHT31;50280;49.864;8.638;2022-07-04T05:20:17;19.14;61.10
64034;SHT31;50280;49.864;8.638;2022-07-04T05:22:50;19.16;61.07
64034;SHT31;50280;49.864;8.638;2022-07-04T05:25:24;19.16;61.80
64034;SHT31;50280;49.864;8.638;2022-07-04T05:27:56;19.17;61.09
64034;SHT31;50280;49.864;8.638;2022-07-04T05:30:29;19.20;61.40
64034;SHT31;50280;49.864;8.638;2022-07-04T05:33:01;19.23;61.56
64034;SHT31;50280;49.864;8.638;2022-07-04T05:35:34;19.27;61.08
64034;SHT31;50280;49.864;8.638;2022-07-04T05:38:06;19.27;61.31
64034;SHT31;50280;49.864;8.638;2022-07-04T05:40:53;19.24;61.28
64034;SHT31;50280;49.864;8.638;2022-07-04T05:43:26;19.26;61.42
64034;SHT31;50280;49.864;8.638;2022-07-04T05:45:58;19.26;61.10
64034;SHT31;50280;49.864;8.638;2022-07-04T05:48:30;19.28;61.15
64034;SHT31;50280;49.864;8.638;2022-07-04T05:51:03;19.31;61.20
64034;SHT31;50280;49.864;8.638;2022-07-04T05:53:36;19.31;61.32
64034;SHT31;50280;49.864;8.638;2022-07-04T05:56:12;19.32;61.43
64034;SHT31;50280;49.864;8.638;2022-07-04T05:58:45;19.38;61.33
64034;SHT31;50280;49.864;8.638;2022-07-04T06:01:17;19.40;61.38
64034;SHT31;50280;49.864;8.638;2022-07-04T06:03:50;19.47;60.66
64034;SHT31;50280;49.864;8.638;2022-07-04T06:06:22;19.54;59.75
64034;SHT31;50280;49.864;8.638;2022-07-04T06:08:55;19.58;58.98
64034;SHT31;50280;49.864;8.638;2022-07-04T06:11:29;19.61;59.04
64034;SHT31;50280;49.864;8.638;2022-07-04T06:14:04;19.68;58.99
64034;SHT31;50280;49.864;8.638;2022-07-04T06:16:36;19.75;59.15
64034;SHT31;50280;49.864;8.638;2022-07-04T06:19:09;19.81;58.45
64034;SHT31;50280;49.864;8.638;2022-07-04T06:21:41;19.85;58.45
64034;SHT31;50280;49.864;8.638;2022-07-04T06:24:14;19.92;58.04
64034;SHT31;50280;49.864;8.638;2022-07-04T06:26:48;19.96;57.77
64034;SHT31;50280;49.864;8.638;2022-07-04T06:29:21;20.02;58.31
64034;SHT31;50280;49.864;8.638;2022-07-04T06:31:53;20.05;57.38
64034;SHT31;50280;49.864;8.638;2022-07-04T06:34:26;20.10;56.86
64034;SHT31;50280;49.864;8.638;2022-07-04T06:36:58;20.16;56.37
64034;SHT31;50280;49.864;8.638;2022-07-04T06:39:31;20.23;56.41
64034;SHT31;50280;49.864;8.638;2022-07-04T06:42:05;20.27;56.42
64034;SHT31;50280;49.864;8.638;2022-07-04T06:44:37;20.37;55.85
64034;SHT31;50280;49.864;8.638;2022-07-04T06:47:09;20.40;56.37
64034;SHT31;50280;49.864;8.638;2022-07-04T06:49:42;20.47;56.36
64034;SHT31;50280;49.864;8.638;2022-07-04T06:52:14;20.52;55.90
64034;SHT31;50280;49.864;8.638;2022-07-04T06:54:47;20.62;55.47
64034;SHT31;50280;49.864;8.638;2022-07-04T06:57:20;20.65;55.47
64034;SHT31;50280;49.864;8.638;2022-07-04T06:59:53;20.69;55.08
64034;SHT31;50280;49.864;8.638;2022-07-04T07:02:26;20.73;55.43
64034;SHT31;50280;49.864;8.638;2022-07-04T07:05:05;20.78;55.36
64034;SHT31;50280;49.864;8.638;2022-07-04T07:07:38;20.85;55.43
64034;SHT31;50280;49.864;8.638;2022-07-04T07:10:11;20.89;54.06
64034;SHT31;50280;49.864;8.638;2022-07-04T07:12:45;20.93;54.20
64034;SHT31;50280;49.864;8.638;2022-07-04T07:15:20;20.95;53.69
64034;SHT31;50280;49.864;8.638;2022-07-04T07:17:54;21.03;53.32
64034;SHT31;50280;49.864;8.638;2022-07-04T07:20:27;21.10;53.05
64034;SHT31;50280;49.864;8.638;2022-07-04T07:23:02;21.16;52.50
64034;SHT31;50280;49.864;8.638;2022-07-04T07:25:35;21.22;51.97
64034;SHT31;50280;49.864;8.638;2022-07-04T07:28:09;21.28;51.94
64034;SHT31;50280;49.864;8.638;2022-07-04T07:30:41;21.33;51.61
64034;SHT31;50280;49.864;8.638;2022-07-04T07:33:13;21.38;51.23
64034;SHT31;50280;49.864;8.638;2022-07-04T07:35:46;21.45;51.18
64034;SHT31;50280;49.864;8.638;2022-07-04T07:38:18;21.50;50.33
64034;SHT31;50280;49.864;8.638;2022-07-04T07:40:51;21.58;49.44
64034;SHT31;50280;49.864;8.638;2022-07-04T07:43:25;21.65;49.96
64034;SHT31;50280;49.864;8.638;2022-07-04T07:45:57;21.75;49.32
64034;SHT31;50280;49.864;8.638;2022-07-04T07:48:30;21.88;49.64
64034;SHT31;50280;49.864;8.638;2022-07-04T07:51:02;22.06;48.56
64034;SHT31;50280;49.864;8.638;2022-07-04T07:53:35;22.23;48.80
64034;SHT31;50280;49.864;8.638;2022-07-04T07:56:07;22.43;48.27
64034;SHT31;50280;49.864;8.638;2022-07-04T07:58:41;22.58;48.19
64034;SHT31;50280;49.864;8.638;2022-07-04T08:01:13;22.81;47.45
64034;SHT31;50280;49.864;8.638;2022-07-04T08:03:46;22.95;46.35
64034;SHT31;50280;49.864;8.638;2022-07-04T08:06:19;23.06;46.64
64034;SHT31;50280;49.864;8.638;2022-07-04T08:08:51;23.19;46.35
64034;SHT31;50280;49.864;8.638;2022-07-04T08:11:24;23.26;45.48
64034;SHT31;50280;49.864;8.638;2022-07-04T08:13:59;23.40;45.35
64034;SHT31;50280;49.864;8.638;2022-07-04T08:16:31;23.57;45.52
64034;SHT31;50280;49.864;8.638;2022-07-04T08:19:04;23.84;44.00
64034;SHT31;50280;49.864;8.638;2022-07-04T08:21:36;24.17;43.82
64034;SHT31;50280;49.864;8.638;2022-07-04T08:24:09;24.46;42.66
64034;SHT31;50280;49.864;8.638;2022-07-04T08:26:41;24.68;42.14
64034;SHT31;50280;49.864;8.638;2022-07-04T08:29:17;24.89;41.58
64034;SHT31;50280;49.864;8.638;2022-07-04T08:31:50;25.01;41.58
64034;SHT31;50280;49.864;8.638;2022-07-04T08:34:22;25.22;41.55
64034;SHT31;50280;49.864;8.638;2022-07-04T08:36:55;25.43;41.00
64034;SHT31;50280;49.864;8.638;2022-07-04T08:39:28;25.70;39.91
64034;SHT31;50280;49.864;8.638;2022-07-04T08:42:03;25.77;39.73
64034;SHT31;50280;49.864;8.638;2022-07-04T08:44:47;25.78;40.42
64034;SHT31;50280;49.864;8.638;2022-07-04T08:47:23;25.75;40.23
64034;SHT31;50280;49.864;8.638;2022-07-04T08:49:59;25.85;39.85
64034;SHT31;50280;49.864;8.638;2022-07-04T08:52:41;26.15;39.62
64034;SHT31;50280;49.864;8.638;2022-07-04T08:55:25;26.41;38.93
64034;SHT31;50280;49.864;8.638;2022-07-04T08:58:02;26.55;37.47
64034;SHT31;50280;49.864;8.638;2022-07-04T09:00:38;26.67;36.96
64034;SHT31;50280;49.864;8.638;2022-07-04T09:03:11;26.60;36.85
64034;SHT31;50280;49.864;8.638;2022-07-04T09:05:44;26.54;36.76
64034;SHT31;50280;49.864;8.638;2022-07-04T09:08:17;26.65;37.61
64034;SHT31;50280;49.864;8.638;2022-07-04T09:10:51;26.81;38.26
64034;SHT31;50280;49.864;8.638;2022-07-04T09:13:25;27.09;37.80
64034;SHT31;50280;49.864;8.638;2022-07-04T09:16:00;27.50;36.74
64034;SHT31;50280;49.864;8.638;2022-07-04T09:18:35;27.44;37.69
64034;SHT31;50280;49.864;8.638;2022-07-04T09:21:10;27.46;36.81
64034;SHT31;50280;49.864;8.638;2022-07-04T09:23:42;27.65;35.72
64034;SHT31;50280;49.864;8.638;2022-07-04T09:26:16;27.87;36.18
64034;SHT31;50280;49.864;8.638;2022-07-04T09:28:52;28.08;35.16
64034;SHT31;50280;49.864;8.638;2022-07-04T09:31:29;28.27;35.36
64034;SHT31;50280;49.864;8.638;2022-07-04T09:34:03;28.39;35.00
64034;SHT31;50280;49.864;8.638;2022-07-04T09:36:40;28.51;35.06
64034;SHT31;50280;49.864;8.638;2022-07-04T09:39:17;28.46;34.55
64034;SHT31;50280;49.864;8.638;2022-07-04T09:41:56;28.37;35.46
64034;SHT31;50280;49.864;8.638;2022-07-04T09:44:44;28.49;35.22
64034;SHT31;50280;49.864;8.638;2022-07-04T09:47:20;28.59;34.87
64034;SHT31;50280;49.864;8.638;2022-07-04T09:49:58;28.71;34.35
64034;SHT31;50280;49.864;8.638;2022-07-04T09:52:32;28.75;33.66
64034;SHT31;50280;49.864;8.638;2022-07-04T09:55:26;28.71;33.27
64034;SHT31;50280;49.864;8.638;2022-07-04T09:58:06;28.75;34.17
64034;SHT31;50280;49.864;8.638;2022-07-04T10:00:43;28.84;33.78
64034;SHT31;50280;49.864;8.638;2022-07-04T10:03:20;28.92;33.16
64034;SHT31;50280;49.864;8.638;2022-07-04T10:06:02;28.98;31.93
64034;SHT31;50280;49.864;8.638;2022-07-04T10:08:38;29.04;32.14
64034;SHT31;50280;49.864;8.638;2022-07-04T10:11:12;29.15;32.64
64034;SHT31;50280;49.864;8.638;2022-07-04T10:13:45;29.34;32.57
64034;SHT31;50280;49.864;8.638;2022-07-04T10:16:18;29.42;32.00
64034;SHT31;50280;49.864;8.638;2022-07-04T10:18:54;29.45;31.09
64034;SHT31;50280;49.864;8.638;2022-07-04T10:21:27;29.12;31.58
64034;SHT31;50280;49.864;8.638;2022-07-04T10:24:01;28.87;32.02
64034;SHT31;50280;49.864;8.638;2022-07-04T10:26:34;28.79;32.86
64034;SHT31;50280;49.864;8.638;2022-07-04T10:29:10;28.90;31.80
64034;SHT31;50280;49.864;8.638;2022-07-04T10:31:44;28.75;32.19
64034;SHT31;50280;49.864;8.638;2022-07-04T10:34:18;28.54;32.68
64034;SHT31;50280;49.864;8.638;2022-07-04T10:36:51;28.53;32.79
64034;SHT31;50280;49.864;8.638;2022-07-04T10:39:24;28.59;32.36
64034;SHT31;50280;49.864;8.638;2022-07-04T10:41:57;28.60;33.59
64034;SHT31;50280;49.864;8.638;2022-07-04T10:44:31;28.74;32.12
64034;SHT31;50280;49.864;8.638;2022-07-04T10:47:04;28.74;30.46
64034;SHT31;50280;49.864;8.638;2022-07-04T10:49:39;28.78;31.74
64034;SHT31;50280;49.864;8.638;2022-07-04T10:52:14;28.81;32.16
64034;SHT31;50280;49.864;8.638;2022-07-04T10:54:47;29.06;32.23
64034;SHT31;50280;49.864;8.638;2022-07-04T10:57:20;29.50;30.19
64034;SHT31;50280;49.864;8.638;2022-07-04T11:00:05;29.81;29.48
64034;SHT31;50280;49.864;8.638;2022-07-04T11:02:39;30.00;29.72
64034;SHT31;50280;49.864;8.638;2022-07-04T11:05:30;30.33;29.75
64034;SHT31;50280;49.864;8.638;2022-07-04T11:08:03;30.71;29.89
64034;SHT31;50280;49.864;8.638;2022-07-04T11:10:40;30.90;28.51
64034;SHT31;50280;49.864;8.638;2022-07-04T11:13:16;31.11;28.95
64034;SHT31;50280;49.864;8.638;2022-07-04T11:16:03;31.11;28.35
64034;SHT31;50280;49.864;8.638;2022-07-04T11:18:39;31.26;28.72
64034;SHT31;50280;49.864;8.638;2022-07-04T11:21:22;31.57;27.03
64034;SHT31;50280;49.864;8.638;2022-07-04T11:23:55;31.46;27.38
64034;SHT31;50280;49.864;8.638;2022-07-04T11:26:28;31.39;28.23
64034;SHT31;50280;49.864;8.638;2022-07-04T11:29:00;31.49;27.20
64034;SHT31;50280;49.864;8.638;2022-07-04T11:31:37;31.70;28.03
64034;SHT31;50280;49.864;8.638;2022-07-04T11:34:12;32.09;25.95
64034;SHT31;50280;49.864;8.638;2022-07-04T11:36:47;32.26;26.14
64034;SHT31;50280;49.864;8.638;2022-07-04T11:39:22;31.97;25.26
64034;SHT31;50280;49.864;8.638;2022-07-04T11:41:55;31.45;26.46
64034;SHT31;50280;49.864;8.638;2022-07-04T11:44:28;31.02;26.78
64034;SHT31;50280;49.864;8.638;2022-07-04T11:47:08;30.81;26.49
64034;SHT31;50280;49.864;8.638;2022-07-04T11:49:45;30.87;28.17
64034;SHT31;50280;49.864;8.638;2022-07-04T11:52:22;31.37;26.35
64034;SHT31;50280;49.864;8.638;2022-07-04T11:54:57;31.33;26.72
64034;SHT31;50280;49.864;8.638;2022-07-04T11:57:32;31.40;25.66
64034;SHT31;50280;49.864;8.638;2022-07-04T12:00:09;31.60;24.74
64034;SHT31;50280;49.864;8.638;2022-07-04T12:02:45;31.85;24.48
64034;SHT31;50280;49.864;8.638;2022-07-04T12:05:19;32.14;24.97
64034;SHT31;50280;49.864;8.638;2022-07-04T12:07:53;32.21;25.07
64034;SHT31;50280;49.864;8.638;2022-07-04T12:10:26;32.15;25.52
64034;SHT31;50280;49.864;8.638;2022-07-04T12:13:00;32.22;25.36
64034;SHT31;50280;49.864;8.638;2022-07-04T12:15:42;31.97;25.02
64034;SHT31;50280;49.864;8.638;2022-07-04T12:18:19;31.95;25.57
64034;SHT31;50280;49.864;8.638;2022-07-04T12:20:54;32.15;25.83
64034;SHT31;50280;49.864;8.638;2022-07-04T12:23:50;32.64;26.41
64034;SHT31;50280;49.864;8.638;2022-07-04T12:26:24;33.15;25.10
64034;SHT31;50280;49.864;8.638;2022-07-04T12:28:56;33.59;23.78
64034;SHT31;50280;49.864;8.638;2022-07-04T12:31:37;33.41;23.46
64034;SHT31;50280;49.864;8.638;2022-07-04T12:34:13;32.77;24.17
64034;SHT31;50280;49.864;8.638;2022-07-04T12:36:50;32.12;25.14
64034;SHT31;50280;49.864;8.638;2022-07-04T12:39:30;31.56;26.21
64034;SHT31;50280;49.864;8.638;2022-07-04T12:42:08;31.21;26.08
64034;SHT31;50280;49.864;8.638;2022-07-04T12:44:43;31.12;26.14
64034;SHT31;50280;49.864;8.638;2022-07-04T12:47:17;31.01;26.43
64034;SHT31;50280;49.864;8.638;2022-07-04T12:49:50;30.77;26.46
64034;SHT31;50280;49.864;8.638;2022-07-04T12:52:27;30.56;27.28
64034;SHT31;50280;49.864;8.638;2022-07-04T12:55:05;30.46;28.09
64034;SHT31;50280;49.864;8.638;2022-07-04T12:57:40;30.91;26.94
64034;SHT31;50280;49.864;8.638;2022-07-04T13:00:13;31.45;25.58
64034;SHT31;50280;49.864;8.638;2022-07-04T13:02:45;31.88;26.02
64034;SHT31;50280;49.864;8.638;2022-07-04T13:05:18;32.36;24.77
64034;SHT31;50280;49.864;8.638;2022-07-04T13:07:50;32.67;23.20
64034;SHT31;50280;49.864;8.638;2022-07-04T13:10:24;32.79;22.98
64034;SHT31;50280;49.864;8.638;2022-07-04T13:13:00;32.56;23.16
64034;SHT31;50280;49.864;8.638;2022-07-04T13:15:33;32.18;24.03
64034;SHT31;50280;49.864;8.638;2022-07-04T13:18:06;31.73;25.36
64034;SHT31;50280;49.864;8.638;2022-07-04T13:20:38;31.94;25.02
64034;SHT31;50280;49.864;8.638;2022-07-04T13:23:11;32.11;24.18
64034;SHT31;50280;49.864;8.638;2022-07-04T13:25:45;32.26;24.10
64034;SHT31;50280;49.864;8.638;2022-07-04T13:28:17;32.46;22.84
64034;SHT31;50280;49.864;8.638;2022-07-04T13:30:50;32.70;23.24
64034;SHT31;50280;49.864;8.638;2022-07-04T13:33:22;33.12;23.37
64034;SHT31;50280;49.864;8.638;2022-07-04T13:35:54;33.62;21.82
64034;SHT31;50280;49.864;8.638;2022-07-04T13:38:27;33.63;21.29
64034;SHT31;50280;49.864;8.638;2022-07-04T13:41:01;33.72;22.54
64034;SHT31;50280;49.864;8.638;2022-07-04T13:43:33;34.03;21.91
64034;SHT31;50280;49.864;8.638;2022-07-04T13:46:06;34.11;21.44
64034;SHT31;50280;49.864;8.638;2022-07-04T13:48:39;34.42;21.97
64034;SHT31;50280;49.864;8.638;2022-07-04T13:51:11;34.79;18.95
64034;SHT31;50280;49.864;8.638;2022-07-04T13:53:44;34.73;18.83
64034;SHT31;50280;49.864;8.638;2022-07-04T13:56:17;34.59;18.96
64034;SHT31;50280;49.864;8.638;2022-07-04T13:58:50;34.31;20.50
64034;SHT31;50280;49.864;8.638;2022-07-04T14:01:23;34.25;20.58
64034;SHT31;50280;49.864;8.638;2022-07-04T14:03:55;34.44;22.57
64034;SHT31;50280;49.864;8.638;2022-07-04T14:06:27;34.80;21.22
64034;SHT31;50280;49.864;8.638;2022-07-04T14:09:00;35.15;19.44
64034;SHT31;50280;49.864;8.638;2022-07-04T14:11:34;35.28;19.24
64034;SHT31;50280;49.864;8.638;2022-07-04T14:14:06;35.21;19.85
64034;SHT31;50280;49.864;8.638;2022-07-04T14:16:39;34.70;19.61
64034;SHT31;50280;49.864;8.638;2022-07-04T14:19:11;34.08;20.01
64034;SHT31;50280;49.864;8.638;2022-07-04T14:21:44;33.66;20.23
64034;SHT31;50280;49.864;8.638;2022-07-04T14:24:16;33.36;20.90
64034;SHT31;50280;49.864;8.638;2022-07-04T14:26:50;32.70;22.07
64034;SHT31;50280;49.864;8.638;2022-07-04T14:29:22;32.09;22.11
64034;SHT31;50280;49.864;8.638;2022-07-04T14:31:55;31.29;23.41
64034;SHT31;50280;49.864;8.638;2022-07-04T14:34:27;30.61;24.02
64034;SHT31;50280;49.864;8.638;2022-07-04T14:37:00;30.15;24.10
64034;SHT31;50280;49.864;8.638;2022-07-04T14:39:33;30.05;24.69
64034;SHT31;50280;49.864;8.638;2022-07-04T14:42:07;30.01;24.73
64034;SHT31;50280;49.864;8.638;2022-07-04T14:44:39;30.02;25.78
64034;SHT31;50280;49.864;8.638;2022-07-04T14:47:12;29.87;25.33
64034;SHT31;50280;49.864;8.638;2022-07-04T14:49:44;29.84;25.79
64034;SHT31;50280;49.864;8.638;2022-07-04T14:52:16;30.30;25.45
64034;SHT31;50280;49.864;8.638;2022-07-04T14:54:49;30.73;23.31
64034;SHT31;50280;49.864;8.638;2022-07-04T14:57:23;30.91;23.97
64034;SHT31;50280;49.864;8.638;2022-07-04T14:59:55;31.28;24.73
64034;SHT31;50280;49.864;8.638;2022-07-04T15:02:27;31.74;24.46
64034;SHT31;50280;49.864;8.638;2022-07-04T15:05:00;32.14;23.15
64034;SHT31;50280;49.864;8.638;2022-07-04T15:07:32;32.37;23.19
64034;SHT31;50280;49.864;8.638;2022-07-04T15:10:06;32.37;22.14
64034;SHT31;50280;49.864;8.638;2022-07-04T15:12:40;32.33;23.20
64034;SHT31;50280;49.864;8.638;2022-07-04T15:15:13;32.36;22.56
64034;SHT31;50280;49.864;8.638;2022-07-04T15:17:45;32.43;23.55
64034;SHT31;50280;49.864;8.638;2022-07-04T15:20:18;32.51;24.18
64034;SHT31;50280;49.864;8.638;2022-07-04T15:22:51;32.55;23.32
64034;SHT31;50280;49.864;8.638;2022-07-04T15:25:23;32.46;22.67
64034;SHT31;50280;49.864;8.638;2022-07-04T15:27:57;32.19;22.97
64034;SHT31;50280;49.864;8.638;2022-07-04T15:30:29;31.98;22.26
64034;SHT31;50280;49.864;8.638;2022-07-04T15:33:02;31.82;23.19
64034;SHT31;50280;49.864;8.638;2022-07-04T15:35:35;31.62;23.45
64034;SHT31;50280;49.864;8.638;2022-07-04T15:38:07;31.47;23.37
64034;SHT31;50280;49.864;8.638;2022-07-04T15:40:40;31.35;24.97
64034;SHT31;50280;49.864;8.638;2022-07-04T15:43:15;31.39;24.35
64034;SHT31;50280;49.864;8.638;2022-07-04T15:45:47;31.43;24.76
64034;SHT31;50280;49.864;8.638;2022-07-04T15:48:20;31.39;23.40
64034;SHT31;50280;49.864;8.638;2022-07-04T15:50:52;31.21;24.05
64034;SHT31;50280;49.864;8.638;2022-07-04T15:53:25;31.19;24.50
64034;SHT31;50280;49.864;8.638;2022-07-04T15:55:57;31.25;23.80
64034;SHT31;50280;49.864;8.638;2022-07-04T15:58:33;31.37;25.52
64034;SHT31;50280;49.864;8.638;2022-07-04T16:01:06;31.45;24.26
64034;SHT31;50280;49.864;8.638;2022-07-04T16:03:38;31.25;23.15
64034;SHT31;50280;49.864;8.638;2022-07-04T16:06:11;31.07;23.93
64034;SHT31;50280;49.864;8.638;2022-07-04T16:08:43;30.88;23.84
64034;SHT31;50280;49.864;8.638;2022-07-04T16:11:16;30.71;24.83